createdAt,value
2018-12-04T00:00:49.522Z,25.48
2018-12-04T00:01:49.476Z,25.38
2018-12-04T00:02:49.431Z,25.38
2018-12-04T00:03:49.385Z,25.29
2018-12-04T00:04:49.339Z,25.87
2018-12-04T00:05:49.295Z,25.87
2018-12-04T00:06:49.248Z,25.96
2018-12-04T00:07:49.204Z,25.67
2018-12-04T00:08:49.158Z,25.40
2018-12-04T00:09:49.111Z,25.59
2018-12-04T00:10:49.066Z,25.59
2018-12-04T00:11:49.022Z,25.59
2018-12-04T00:12:48.977Z,25.68
2018-12-04T00:13:48.931Z,25.49
2018-12-04T00:14:48.885Z,25.48
2018-12-04T00:15:48.840Z,25.49
2018-12-04T00:16:48.800Z,25.68
2018-12-04T00:17:48.747Z,25.59
2018-12-04T00:18:48.707Z,25.58
2018-12-04T00:19:48.659Z,25.29
2018-12-04T00:20:48.613Z,25.96
2018-12-04T00:21:48.570Z,25.77
2018-12-04T00:22:48.522Z,25.96
2018-12-04T00:23:48.527Z,25.96
2018-12-04T00:24:48.431Z,25.67
2018-12-04T00:25:48.385Z,25.68
2018-12-04T00:26:48.343Z,25.49
2018-12-04T00:27:48.300Z,25.40
2018-12-04T00:28:48.250Z,25.49
2018-12-04T00:29:48.202Z,25.59
2018-12-04T00:30:48.158Z,25.68
2018-12-04T00:31:48.117Z,25.49
2018-12-04T00:32:48.070Z,25.67
2018-12-04T00:33:48.024Z,25.78
2018-12-04T00:34:47.978Z,25.68
2018-12-04T00:35:47.931Z,25.68
2018-12-04T00:36:47.886Z,25.88
2018-12-04T00:37:47.838Z,25.59
2018-12-04T00:38:47.793Z,25.68
2018-12-04T00:39:47.749Z,25.49
2018-12-04T00:40:48.021Z,25.68
2018-12-04T00:41:47.656Z,25.49
2018-12-04T00:42:47.613Z,25.49
2018-12-04T00:43:47.569Z,25.49
2018-12-04T00:44:47.522Z,25.68
2018-12-04T00:45:47.475Z,25.59
2018-12-04T00:46:47.431Z,25.49
2018-12-04T00:47:47.384Z,25.49
2018-12-04T00:48:47.339Z,25.40
2018-12-04T00:49:47.294Z,25.49
2018-12-04T00:50:47.250Z,25.59
2018-12-04T00:51:47.203Z,25.40
2018-12-04T00:52:47.157Z,25.59
2018-12-04T00:53:47.112Z,25.49
2018-12-04T00:54:47.068Z,25.49
2018-12-04T00:55:47.023Z,25.40
2018-12-04T00:56:46.977Z,25.49
2018-12-04T00:57:46.931Z,25.30
2018-12-04T00:58:46.886Z,25.59
2018-12-04T00:59:46.841Z,25.30
2018-12-04T01:00:46.796Z,25.49
2018-12-04T01:01:46.750Z,25.59
2018-12-04T01:02:46.704Z,25.30
2018-12-04T01:03:46.659Z,25.01
2018-12-04T01:04:46.613Z,25.10
2018-12-04T01:05:46.568Z,24.91
2018-12-04T01:06:46.523Z,24.91
2018-12-04T01:07:46.477Z,24.91
2018-12-04T01:08:46.433Z,25.10
2018-12-04T01:09:46.387Z,24.91
2018-12-04T01:10:46.342Z,25.12
2018-12-04T01:11:46.304Z,25.21
2018-12-04T01:12:46.252Z,25.12
2018-12-04T01:13:46.206Z,25.10
2018-12-04T01:14:46.161Z,25.30
2018-12-04T01:15:46.118Z,24.62
2018-12-04T01:16:46.070Z,25.10
2018-12-04T01:17:46.025Z,24.54
2018-12-04T01:18:45.985Z,24.73
2018-12-04T01:19:45.936Z,24.63
2018-12-04T01:20:45.891Z,24.73
2018-12-04T01:21:45.843Z,24.83
2018-12-04T01:22:45.799Z,24.63
2018-12-04T01:23:45.753Z,24.63
2018-12-04T01:24:45.708Z,24.73
2018-12-04T01:25:45.662Z,24.73
2018-12-04T01:26:45.617Z,24.73
2018-12-04T01:27:45.571Z,24.63
2018-12-04T01:28:45.526Z,24.92
2018-12-04T01:29:45.481Z,24.63
2018-12-04T01:30:45.436Z,24.83
2018-12-04T01:31:45.391Z,25.02
2018-12-04T01:32:45.346Z,24.92
2018-12-04T01:33:45.298Z,25.02
2018-12-04T01:34:45.255Z,24.92
2018-12-04T01:35:45.210Z,24.92
2018-12-04T01:36:45.164Z,24.92
2018-12-04T01:37:45.118Z,24.73
2018-12-04T01:38:45.074Z,24.83
2018-12-04T01:39:45.028Z,24.83
2018-12-04T01:40:44.984Z,24.73
2018-12-04T01:41:44.938Z,24.83
2018-12-04T01:42:44.893Z,24.63
2018-12-04T01:43:44.848Z,24.63
2018-12-04T01:44:44.803Z,24.73
2018-12-04T01:45:44.757Z,24.63
2018-12-04T01:46:44.711Z,24.73
2018-12-04T01:47:44.667Z,24.83
2018-12-04T01:48:44.627Z,24.73
2018-12-04T01:49:44.576Z,24.63
2018-12-04T01:50:44.530Z,24.73
2018-12-04T01:51:44.486Z,24.83
2018-12-04T01:52:44.441Z,24.83
2018-12-04T01:53:44.396Z,24.73
2018-12-04T01:54:44.350Z,24.73
2018-12-04T01:55:44.306Z,24.73
2018-12-04T01:56:44.261Z,24.73
2018-12-04T01:57:44.214Z,24.73
2018-12-04T01:58:44.169Z,24.73
2018-12-04T01:59:44.125Z,24.73
2018-12-04T02:00:44.082Z,24.73
2018-12-04T02:01:44.050Z,24.73
2018-12-04T02:02:43.989Z,24.73
2018-12-04T02:03:43.943Z,24.73
2018-12-04T02:04:43.948Z,24.73
2018-12-04T02:05:43.853Z,24.73
2018-12-04T02:06:43.812Z,24.73
2018-12-04T02:07:43.764Z,24.73
2018-12-04T02:08:43.718Z,24.73
2018-12-04T02:09:43.990Z,24.73
2018-12-04T02:10:43.627Z,24.83
2018-12-04T02:11:43.583Z,24.83
2018-12-04T02:12:43.538Z,24.83
2018-12-04T02:13:43.492Z,25.02
2018-12-04T02:14:43.447Z,25.12
2018-12-04T02:15:43.402Z,24.92
2018-12-04T02:16:43.359Z,24.83
2018-12-04T02:17:43.311Z,24.92
2018-12-04T02:18:43.266Z,24.92
2018-12-04T02:19:43.224Z,24.92
2018-12-04T02:20:43.176Z,24.92
2018-12-04T02:21:43.130Z,25.02
2018-12-04T02:22:43.085Z,24.92
2018-12-04T02:23:43.042Z,24.83
2018-12-04T02:24:42.995Z,25.12
2018-12-04T02:25:42.950Z,25.02
2018-12-04T02:26:42.905Z,24.83
2018-12-04T02:27:42.860Z,24.92
2018-12-04T02:28:42.815Z,25.02
2018-12-04T02:29:42.768Z,24.83
2018-12-04T02:30:42.728Z,24.92
2018-12-04T02:31:42.680Z,25.02
2018-12-04T02:32:42.633Z,24.83
2018-12-04T02:33:42.589Z,24.73
2018-12-04T02:34:42.544Z,24.92
2018-12-04T02:35:42.498Z,24.92
2018-12-04T02:36:42.454Z,25.12
2018-12-04T02:37:42.410Z,24.83
2018-12-04T02:38:42.365Z,25.02
2018-12-04T02:39:42.320Z,25.12
2018-12-04T02:40:42.274Z,24.83
2018-12-04T02:41:42.236Z,24.83
2018-12-04T02:42:42.189Z,24.73
2018-12-04T02:43:42.138Z,25.12
2018-12-04T02:44:42.093Z,25.02
2018-12-04T02:45:42.048Z,24.92
2018-12-04T02:46:42.003Z,25.12
2018-12-04T02:47:41.958Z,25.12
2018-12-04T02:48:41.913Z,25.12
2018-12-04T02:49:41.866Z,24.73
2018-12-04T02:50:41.823Z,24.73
2018-12-04T02:51:41.777Z,24.73
2018-12-04T02:52:41.733Z,24.83
2018-12-04T02:53:41.687Z,24.92
2018-12-04T02:54:41.642Z,25.02
2018-12-04T02:55:41.597Z,24.83
2018-12-04T02:56:41.552Z,24.92
2018-12-04T02:57:41.507Z,25.12
2018-12-04T02:58:41.462Z,24.92
2018-12-04T02:59:41.416Z,24.92
2018-12-04T03:00:41.380Z,24.83
2018-12-04T03:01:41.325Z,24.92
2018-12-04T03:02:41.284Z,25.02
2018-12-04T03:03:41.237Z,24.92
2018-12-04T03:04:41.190Z,25.02
2018-12-04T03:05:41.145Z,24.73
2018-12-04T03:06:41.102Z,24.73
2018-12-04T03:07:41.058Z,24.72
2018-12-04T03:08:41.012Z,25.12
2018-12-04T03:09:40.966Z,25.12
2018-12-04T03:10:40.920Z,25.12
2018-12-04T03:11:40.883Z,25.01
2018-12-04T03:12:40.837Z,25.58
2018-12-04T03:13:40.829Z,25.87
2018-12-04T03:14:40.739Z,25.87
2018-12-04T03:15:40.707Z,25.96
2018-12-04T03:16:40.967Z,25.38
2018-12-04T03:17:40.604Z,25.49
2018-12-04T03:18:40.566Z,25.59
2018-12-04T03:19:40.514Z,25.40
2018-12-04T03:20:40.469Z,25.87
2018-12-04T03:21:40.424Z,26.26
2018-12-04T03:22:40.377Z,26.16
2018-12-04T03:23:40.334Z,26.26
2018-12-04T03:24:40.288Z,26.16
2018-12-04T03:25:40.242Z,26.16
2018-12-04T03:26:40.206Z,26.26
2018-12-04T03:27:40.153Z,26.06
2018-12-04T03:28:40.108Z,26.26
2018-12-04T03:29:40.061Z,26.16
2018-12-04T03:30:40.019Z,26.16
2018-12-04T03:31:39.974Z,26.16
2018-12-04T03:32:39.926Z,26.06
2018-12-04T03:33:39.883Z,26.06
2018-12-04T03:34:39.835Z,26.35
2018-12-04T03:35:39.790Z,26.26
2018-12-04T03:36:39.754Z,26.54
2018-12-04T03:37:39.699Z,26.25
2018-12-04T03:38:39.653Z,26.43
2018-12-04T03:39:39.614Z,26.64
2018-12-04T03:40:39.668Z,26.73
2018-12-04T03:41:39.517Z,26.34
2018-12-04T03:42:39.471Z,26.63
2018-12-04T03:43:39.431Z,26.63
2018-12-04T03:44:39.383Z,26.43
2018-12-04T03:45:39.336Z,26.53
2018-12-04T03:46:39.339Z,26.05
2018-12-04T03:47:39.245Z,26.53
2018-12-04T03:48:39.203Z,26.63
2018-12-04T03:49:39.155Z,26.63
2018-12-04T03:50:39.109Z,26.63
2018-12-04T03:51:39.071Z,26.63
2018-12-04T03:52:39.021Z,26.63
2018-12-04T03:53:38.971Z,26.63
2018-12-04T03:54:38.926Z,26.73
2018-12-04T03:55:38.881Z,26.73
2018-12-04T03:56:38.841Z,26.63
2018-12-04T03:57:38.790Z,26.63
2018-12-04T03:58:38.745Z,26.63
2018-12-04T03:59:38.699Z,26.82
2018-12-04T04:00:38.655Z,26.43
2018-12-04T04:01:38.608Z,26.92
2018-12-04T04:02:38.563Z,26.73
2018-12-04T04:03:38.519Z,26.82
2018-12-04T04:04:38.472Z,26.82
2018-12-04T04:05:38.427Z,26.63
2018-12-04T04:06:38.382Z,26.63
2018-12-04T04:07:38.342Z,26.63
2018-12-04T04:08:38.290Z,26.53
2018-12-04T04:09:38.294Z,26.63
2018-12-04T04:10:38.199Z,26.53
2018-12-04T04:11:38.156Z,26.25
2018-12-04T04:12:38.108Z,26.15
2018-12-04T04:13:38.062Z,26.25
2018-12-04T04:14:38.017Z,26.73
2018-12-04T04:15:37.971Z,26.26
2018-12-04T04:16:37.926Z,26.54
2018-12-04T04:17:37.883Z,26.63
2018-12-04T04:18:37.834Z,26.35
2018-12-04T04:19:37.789Z,26.26
2018-12-04T04:20:37.744Z,26.25
2018-12-04T04:21:37.701Z,26.25
2018-12-04T04:22:37.653Z,26.35
2018-12-04T04:23:37.640Z,26.84
2018-12-04T04:24:37.562Z,26.54
2018-12-04T04:25:37.516Z,26.84
2018-12-04T04:26:37.471Z,26.54
2018-12-04T04:27:37.425Z,26.45
2018-12-04T04:28:37.382Z,26.26
2018-12-04T04:29:37.334Z,26.06
2018-12-04T04:30:37.288Z,26.26
2018-12-04T04:31:37.243Z,26.26
2018-12-04T04:32:37.198Z,26.26
2018-12-04T04:33:37.151Z,26.16
2018-12-04T04:34:37.157Z,26.16
2018-12-04T04:35:37.062Z,26.26
2018-12-04T04:36:37.017Z,26.26
2018-12-04T04:37:36.970Z,26.26
2018-12-04T04:38:36.924Z,25.96
2018-12-04T04:39:36.879Z,25.77
2018-12-04T04:40:36.836Z,25.87
2018-12-04T04:41:36.795Z,25.77
2018-12-04T04:42:36.743Z,25.87
2018-12-04T04:43:36.697Z,26.26
2018-12-04T04:44:36.655Z,26.16
2018-12-04T04:45:36.606Z,26.06
2018-12-04T04:46:36.561Z,26.16
2018-12-04T04:47:36.519Z,25.77
2018-12-04T04:48:36.470Z,25.77
2018-12-04T04:49:36.424Z,25.77
2018-12-04T04:50:36.380Z,25.87
2018-12-04T04:51:36.334Z,25.88
2018-12-04T04:52:36.292Z,25.88
2018-12-04T04:53:36.316Z,25.98
2018-12-04T04:54:36.198Z,25.98
2018-12-04T04:55:36.153Z,25.88
2018-12-04T04:56:36.107Z,25.88
2018-12-04T04:57:36.061Z,25.98
2018-12-04T04:58:36.065Z,25.98
2018-12-04T04:59:35.971Z,25.87
2018-12-04T05:00:35.926Z,26.25
2018-12-04T05:01:35.879Z,26.53
2018-12-04T05:02:35.835Z,26.74
2018-12-04T05:03:35.790Z,26.35
2018-12-04T05:04:35.742Z,26.16
2018-12-04T05:05:35.697Z,26.16
2018-12-04T05:06:35.653Z,26.16
2018-12-04T05:07:35.606Z,26.06
2018-12-04T05:08:35.562Z,25.96
2018-12-04T05:09:35.518Z,26.06
2018-12-04T05:10:35.470Z,26.06
2018-12-04T05:11:35.425Z,26.26
2018-12-04T05:12:35.380Z,26.06
2018-12-04T05:13:35.344Z,26.63
2018-12-04T05:14:35.289Z,26.82
2018-12-04T05:15:35.249Z,26.45
2018-12-04T05:16:35.199Z,26.26
2018-12-04T05:17:35.152Z,26.06
2018-12-04T05:18:35.106Z,26.06
2018-12-04T05:19:35.061Z,25.96
2018-12-04T05:20:35.016Z,26.16
2018-12-04T05:21:34.973Z,26.16
2018-12-04T05:22:34.924Z,26.06
2018-12-04T05:23:34.879Z,26.26
2018-12-04T05:24:34.837Z,26.45
2018-12-04T05:25:34.787Z,26.26
2018-12-04T05:26:34.743Z,26.06
2018-12-04T05:27:34.697Z,25.87
2018-12-04T05:28:34.651Z,26.16
2018-12-04T05:29:34.606Z,26.06
2018-12-04T05:30:34.560Z,26.26
2018-12-04T05:31:34.515Z,26.26
2018-12-04T05:32:34.468Z,26.16
2018-12-04T05:33:34.424Z,26.26
2018-12-04T05:34:34.379Z,26.45
2018-12-04T05:35:34.333Z,26.25
2018-12-04T05:36:34.288Z,26.63
2018-12-04T05:37:34.241Z,27.29
2018-12-04T05:38:34.196Z,27.10
2018-12-04T05:39:34.159Z,27.37
2018-12-04T05:40:34.106Z,27.76
2018-12-04T05:41:34.102Z,27.86
2018-12-04T05:42:34.014Z,28.34
2018-12-04T05:43:33.969Z,28.33
2018-12-04T05:44:33.923Z,28.15
2018-12-04T05:45:33.879Z,28.15
2018-12-04T05:46:33.833Z,27.96
2018-12-04T05:47:33.785Z,28.34
2018-12-04T05:48:33.740Z,28.44
2018-12-04T05:49:33.695Z,28.34
2018-12-04T05:50:33.649Z,28.25
2018-12-04T05:51:33.603Z,27.96
2018-12-04T05:52:33.560Z,27.76
2018-12-04T05:53:33.522Z,27.68
2018-12-04T05:54:33.466Z,27.49
2018-12-04T05:55:33.420Z,27.20
2018-12-04T05:56:33.375Z,27.20
2018-12-04T05:57:33.329Z,27.21
2018-12-04T05:58:33.284Z,27.10
2018-12-04T05:59:33.238Z,26.92
2018-12-04T06:00:33.193Z,27.29
2018-12-04T06:01:33.146Z,27.10
2018-12-04T06:02:33.101Z,27.49
2018-12-04T06:03:33.062Z,27.39
2018-12-04T06:04:33.010Z,27.29
2018-12-04T06:05:32.982Z,27.29
2018-12-04T06:06:32.917Z,27.10
2018-12-04T06:07:32.972Z,27.39
2018-12-04T06:08:32.827Z,27.01
2018-12-04T06:09:32.781Z,26.82
2018-12-04T06:10:32.736Z,27.01
2018-12-04T06:11:32.690Z,26.53
2018-12-04T06:12:32.649Z,26.63
2018-12-04T06:13:32.598Z,26.82
2018-12-04T06:14:32.552Z,26.53
2018-12-04T06:15:32.507Z,26.63
2018-12-04T06:16:32.463Z,27.00
2018-12-04T06:17:32.415Z,27.40
2018-12-04T06:18:32.370Z,27.00
2018-12-04T06:19:32.326Z,27.01
2018-12-04T06:20:32.279Z,26.43
2018-12-04T06:21:32.232Z,26.82
2018-12-04T06:22:32.186Z,27.29
2018-12-04T06:23:32.142Z,27.29
2018-12-04T06:24:32.096Z,27.39
2018-12-04T06:25:32.050Z,27.00
2018-12-04T06:26:32.003Z,26.82
2018-12-04T06:27:31.958Z,27.01
2018-12-04T06:28:31.916Z,26.43
2018-12-04T06:29:31.867Z,26.82
2018-12-04T06:30:31.822Z,26.53
2018-12-04T06:31:31.776Z,26.73
2018-12-04T06:32:31.732Z,26.63
2018-12-04T06:33:31.685Z,26.72
2018-12-04T06:34:31.638Z,27.20
2018-12-04T06:35:31.594Z,27.11
2018-12-04T06:36:31.548Z,26.81
2018-12-04T06:37:31.501Z,26.92
2018-12-04T06:38:31.457Z,27.21
2018-12-04T06:39:31.414Z,26.34
2018-12-04T06:40:31.365Z,26.53
2018-12-04T06:41:31.319Z,26.63
2018-12-04T06:42:31.274Z,26.34
2018-12-04T06:43:31.228Z,26.15
2018-12-04T06:44:31.184Z,26.25
2018-12-04T06:45:31.137Z,26.53
2018-12-04T06:46:31.092Z,26.63
2018-12-04T06:47:31.046Z,26.53
2018-12-04T06:48:31.000Z,26.53
2018-12-04T06:49:30.954Z,26.34
2018-12-04T06:50:30.909Z,26.25
2018-12-04T06:51:30.866Z,26.16
2018-12-04T06:52:30.818Z,26.35
2018-12-04T06:53:30.772Z,26.64
2018-12-04T06:54:30.725Z,26.84
2018-12-04T06:55:30.681Z,26.54
2018-12-04T06:56:30.636Z,26.34
2018-12-04T06:57:30.590Z,26.64
2018-12-04T06:58:30.543Z,26.74
2018-12-04T06:59:30.498Z,26.74
2018-12-04T07:00:30.454Z,26.74
2018-12-04T07:01:30.724Z,26.34
2018-12-04T07:02:30.362Z,26.73
2018-12-04T07:03:30.320Z,26.34
2018-12-04T07:04:30.271Z,26.82
2018-12-04T07:05:30.231Z,26.45
2018-12-04T07:06:30.184Z,26.84
2018-12-04T07:07:30.134Z,26.53
2018-12-04T07:08:30.091Z,26.84
2018-12-04T07:09:30.043Z,26.84
2018-12-04T07:10:29.997Z,26.35
2018-12-04T07:11:29.952Z,26.35
2018-12-04T07:12:29.906Z,26.26
2018-12-04T07:13:29.860Z,26.16
2018-12-04T07:14:29.815Z,26.16
2018-12-04T07:15:29.775Z,25.96
2018-12-04T07:16:29.725Z,26.16
2018-12-04T07:17:29.677Z,26.16
2018-12-04T07:18:29.638Z,26.26
2018-12-04T07:19:29.586Z,26.45
2018-12-04T07:20:29.542Z,26.45
2018-12-04T07:21:29.495Z,26.16
2018-12-04T07:22:29.451Z,26.35
2018-12-04T07:23:29.406Z,26.45
2018-12-04T07:24:29.359Z,26.74
2018-12-04T07:25:29.356Z,26.75
2018-12-04T07:26:29.268Z,26.54
2018-12-04T07:27:29.223Z,26.45
2018-12-04T07:28:29.178Z,26.26
2018-12-04T07:29:29.131Z,26.35
2018-12-04T07:30:29.088Z,26.26
2018-12-04T07:31:29.041Z,26.75
2018-12-04T07:32:28.995Z,26.56
2018-12-04T07:33:28.949Z,26.85
2018-12-04T07:34:28.904Z,26.56
2018-12-04T07:35:28.858Z,26.56
2018-12-04T07:36:28.813Z,26.45
2018-12-04T07:37:28.768Z,26.75
2018-12-04T07:38:28.721Z,26.84
2018-12-04T07:39:28.676Z,27.03
2018-12-04T07:40:28.631Z,27.22
2018-12-04T07:41:28.587Z,27.32
2018-12-04T07:42:28.540Z,27.22
2018-12-04T07:43:28.495Z,27.32
2018-12-04T07:44:28.449Z,27.32
2018-12-04T07:45:28.403Z,27.13
2018-12-04T07:46:28.358Z,27.11
2018-12-04T07:47:28.312Z,27.21
2018-12-04T07:48:28.267Z,27.60
2018-12-04T07:49:28.221Z,27.70
2018-12-04T07:50:28.176Z,27.68
2018-12-04T07:51:28.131Z,28.36
2018-12-04T07:52:28.086Z,28.55
2018-12-04T07:53:28.039Z,29.02
2018-12-04T07:54:27.993Z,28.73
2018-12-04T07:55:27.950Z,29.01
2018-12-04T07:56:27.903Z,29.01
2018-12-04T07:57:27.858Z,29.59
2018-12-04T07:58:27.812Z,29.96
2018-12-04T07:59:27.769Z,30.15
2018-12-04T08:00:27.723Z,30.14
2018-12-04T08:01:27.675Z,30.52
2018-12-04T08:02:27.629Z,30.91
2018-12-04T08:03:27.584Z,30.91
2018-12-04T08:04:27.538Z,30.72
2018-12-04T08:05:27.491Z,30.99
2018-12-04T08:06:27.447Z,31.38
2018-12-04T08:07:27.400Z,31.76
2018-12-04T08:08:27.355Z,32.15
2018-12-04T08:09:27.308Z,32.06
2018-12-04T08:10:27.262Z,31.96
2018-12-04T08:11:27.219Z,32.15
2018-12-04T08:12:27.172Z,32.23
2018-12-04T08:13:27.126Z,32.33
2018-12-04T08:14:27.085Z,32.43
2018-12-04T08:15:27.034Z,32.62
2018-12-04T08:16:27.007Z,32.52
2018-12-04T08:17:26.942Z,32.71
2018-12-04T08:18:26.896Z,32.81
2018-12-04T08:19:26.850Z,33.10
2018-12-04T08:20:26.809Z,32.91
2018-12-04T08:21:26.757Z,32.62
2018-12-04T08:22:26.713Z,33.39
2018-12-04T08:23:26.667Z,33.20
2018-12-04T08:24:26.622Z,33.29
2018-12-04T08:25:26.575Z,33.58
2018-12-04T08:26:26.529Z,33.48
2018-12-04T08:27:26.485Z,33.57
2018-12-04T08:28:26.436Z,33.58
2018-12-04T08:29:26.390Z,33.39
2018-12-04T08:30:26.344Z,33.48
2018-12-04T08:31:26.299Z,33.47
2018-12-04T08:32:26.252Z,33.95
2018-12-04T08:33:26.206Z,33.76
2018-12-04T08:34:26.161Z,34.05
2018-12-04T08:35:26.115Z,34.14
2018-12-04T08:36:26.069Z,34.34
2018-12-04T08:37:26.021Z,34.34
2018-12-04T08:38:25.976Z,34.44
2018-12-04T08:39:25.930Z,34.44
2018-12-04T08:40:25.885Z,34.24
2018-12-04T08:41:25.841Z,34.44
2018-12-04T08:42:25.791Z,34.24
2018-12-04T08:43:25.745Z,34.44
2018-12-04T08:44:25.700Z,34.34
2018-12-04T08:45:25.652Z,34.24
2018-12-04T08:46:25.607Z,34.34
2018-12-04T08:47:25.561Z,34.63
2018-12-04T08:48:25.516Z,34.72
2018-12-04T08:49:25.467Z,34.63
2018-12-04T08:50:25.423Z,34.82
2018-12-04T08:51:25.377Z,34.72
2018-12-04T08:52:25.331Z,34.92
2018-12-04T08:53:25.283Z,34.70
2018-12-04T08:54:25.288Z,35.00
2018-12-04T08:55:25.192Z,35.28
2018-12-04T08:56:25.145Z,35.19
2018-12-04T08:57:25.098Z,35.10
2018-12-04T08:58:25.052Z,35.19
2018-12-04T08:59:25.007Z,35.00
2018-12-04T09:00:24.961Z,35.10
2018-12-04T09:01:24.915Z,34.80
2018-12-04T09:02:24.870Z,34.90
2018-12-04T09:03:24.821Z,35.00
2018-12-04T09:04:24.779Z,35.10
2018-12-04T09:05:24.729Z,35.10
2018-12-04T09:06:24.683Z,35.10
2018-12-04T09:07:24.636Z,34.80
2018-12-04T09:08:24.591Z,35.38
2018-12-04T09:09:24.543Z,35.58
2018-12-04T09:10:24.497Z,35.28
2018-12-04T09:11:24.451Z,35.48
2018-12-04T09:12:24.407Z,35.48
2018-12-04T09:13:24.358Z,35.58
2018-12-04T09:14:24.314Z,35.48
2018-12-04T09:15:24.266Z,35.58
2018-12-04T09:16:24.220Z,35.28
2018-12-04T09:17:24.175Z,34.70
2018-12-04T09:18:24.178Z,35.58
2018-12-04T09:19:24.081Z,35.19
2018-12-04T09:20:24.071Z,35.19
2018-12-04T09:21:24.021Z,35.28
2018-12-04T09:22:23.961Z,35.28
2018-12-04T09:23:23.912Z,35.19
2018-12-04T09:24:23.851Z,35.28
2018-12-04T09:25:23.803Z,35.48
2018-12-04T09:26:23.830Z,35.48
2018-12-04T09:27:23.757Z,35.38
2018-12-04T09:28:23.688Z,35.28
2018-12-04T09:29:23.655Z,35.28
2018-12-04T09:30:23.601Z,34.80
2018-12-04T09:31:23.524Z,35.28
2018-12-04T09:32:23.481Z,34.90
2018-12-04T09:33:23.431Z,35.00
2018-12-04T09:34:23.385Z,35.00
2018-12-04T09:35:23.339Z,35.00
2018-12-04T09:36:23.295Z,35.10
2018-12-04T09:37:23.249Z,35.10
2018-12-04T09:38:23.199Z,34.90
2018-12-04T09:39:23.155Z,35.38
2018-12-04T09:40:23.109Z,35.28
2018-12-04T09:41:23.060Z,35.38
2018-12-04T09:42:23.015Z,35.19
2018-12-04T09:43:22.969Z,34.90
2018-12-04T09:44:22.972Z,35.67
2018-12-04T09:45:22.876Z,35.58
2018-12-04T09:46:22.830Z,35.86
2018-12-04T09:47:22.784Z,35.77
2018-12-04T09:48:22.738Z,36.15
2018-12-04T09:49:22.691Z,36.15
2018-12-04T09:50:22.644Z,36.54
2018-12-04T09:51:22.599Z,36.63
2018-12-04T09:52:22.553Z,36.44
2018-12-04T09:53:25.239Z,36.35
2018-12-04T09:54:22.459Z,36.63
2018-12-04T09:55:22.415Z,36.54
2018-12-04T09:56:22.369Z,36.54
2018-12-04T09:57:22.319Z,36.25
2018-12-04T09:58:22.274Z,36.35
2018-12-04T09:59:22.228Z,36.25
2018-12-04T10:00:22.181Z,36.25
2018-12-04T10:01:22.135Z,36.63
2018-12-04T10:02:22.088Z,36.63
2018-12-04T10:03:22.045Z,36.73
2018-12-04T10:04:21.995Z,36.63
2018-12-04T10:05:21.949Z,36.63
2018-12-04T10:06:21.907Z,36.93
2018-12-04T10:07:21.857Z,36.93
2018-12-04T10:08:21.811Z,36.73
2018-12-04T10:09:21.764Z,36.93
2018-12-04T10:10:21.768Z,37.21
2018-12-04T10:11:21.709Z,37.31
2018-12-04T10:12:21.625Z,37.21
2018-12-04T10:13:21.578Z,37.41
2018-12-04T10:14:21.531Z,37.41
2018-12-04T10:15:21.487Z,37.41
2018-12-04T10:16:21.442Z,37.79
2018-12-04T10:17:21.394Z,37.50
2018-12-04T10:18:21.347Z,38.08
2018-12-04T10:19:21.303Z,37.50
2018-12-04T10:20:21.253Z,37.41
2018-12-04T10:21:21.207Z,38.08
2018-12-04T10:22:21.162Z,38.18
2018-12-04T10:23:21.114Z,38.18
2018-12-04T10:24:21.069Z,37.98
2018-12-04T10:25:21.020Z,37.98
2018-12-04T10:26:20.974Z,37.89
2018-12-04T10:27:20.936Z,37.98
2018-12-04T10:28:20.882Z,38.08
2018-12-04T10:29:20.835Z,38.28
2018-12-04T10:30:20.789Z,38.46
2018-12-04T10:31:20.744Z,38.28
2018-12-04T10:32:20.698Z,38.46
2018-12-04T10:33:20.651Z,38.46
2018-12-04T10:34:20.603Z,38.56
2018-12-04T10:35:20.557Z,38.76
2018-12-04T10:36:20.512Z,38.56
2018-12-04T10:37:20.467Z,38.66
2018-12-04T10:38:20.418Z,38.66
2018-12-04T10:39:20.373Z,38.83
2018-12-04T10:40:20.326Z,38.74
2018-12-04T10:41:20.279Z,38.74
2018-12-04T10:42:20.241Z,38.74
2018-12-04T10:43:20.189Z,38.83
2018-12-04T10:44:20.145Z,38.93
2018-12-04T10:45:20.094Z,38.83
2018-12-04T10:46:20.056Z,39.03
2018-12-04T10:47:20.002Z,38.83
2018-12-04T10:48:19.956Z,39.03
2018-12-04T10:49:19.908Z,39.03
2018-12-04T10:50:19.863Z,39.03
2018-12-04T10:51:19.815Z,39.22
2018-12-04T10:52:19.769Z,39.03
2018-12-04T10:53:19.722Z,39.12
2018-12-04T10:54:19.677Z,39.03
2018-12-04T10:55:19.634Z,39.03
2018-12-04T10:56:19.585Z,39.12
2018-12-04T10:57:19.538Z,39.22
2018-12-04T10:58:19.491Z,39.03
2018-12-04T10:59:19.445Z,39.31
2018-12-04T11:00:19.399Z,39.22
2018-12-04T11:01:19.353Z,39.31
2018-12-04T11:02:19.306Z,39.12
2018-12-04T11:03:19.260Z,39.12
2018-12-04T11:04:19.213Z,39.22
2018-12-04T11:05:19.166Z,39.12
2018-12-04T11:06:19.119Z,39.03
2018-12-04T11:07:19.074Z,39.22
2018-12-04T11:08:19.027Z,39.31
2018-12-04T11:09:18.979Z,39.51
2018-12-04T11:10:18.933Z,39.61
2018-12-04T11:11:18.887Z,39.61
2018-12-04T11:12:18.841Z,39.61
2018-12-04T11:13:18.794Z,39.51
2018-12-04T11:14:18.748Z,39.51
2018-12-04T11:15:18.702Z,39.61
2018-12-04T11:16:18.655Z,39.51
2018-12-04T11:17:18.608Z,39.61
2018-12-04T11:18:18.562Z,39.51
2018-12-04T11:19:18.515Z,39.51
2018-12-04T11:20:18.470Z,39.70
2018-12-04T11:21:18.422Z,39.41
2018-12-04T11:22:18.376Z,39.51
2018-12-04T11:23:18.329Z,39.61
2018-12-04T11:24:18.283Z,39.51
2018-12-04T11:25:18.236Z,39.41
2018-12-04T11:26:18.191Z,39.51
2018-12-04T11:27:18.145Z,39.51
2018-12-04T11:28:18.148Z,39.41
2018-12-04T11:29:18.051Z,39.41
2018-12-04T11:30:18.005Z,39.51
2018-12-04T11:31:17.957Z,39.31
2018-12-04T11:32:17.922Z,39.31
2018-12-04T11:33:17.865Z,39.31
2018-12-04T11:34:17.820Z,39.22
2018-12-04T11:35:17.772Z,39.22
2018-12-04T11:36:17.726Z,39.31
2018-12-04T11:37:17.685Z,39.22
2018-12-04T11:38:17.632Z,39.12
2018-12-04T11:39:17.588Z,39.12
2018-12-04T11:40:17.539Z,39.31
2018-12-04T11:41:17.493Z,39.03
2018-12-04T11:42:17.447Z,38.93
2018-12-04T11:43:17.399Z,39.22
2018-12-04T11:44:17.354Z,39.03
2018-12-04T11:45:17.305Z,39.12
2018-12-04T11:46:17.259Z,38.93
2018-12-04T11:47:17.214Z,39.03
2018-12-04T11:48:17.167Z,39.04
2018-12-04T11:49:17.125Z,38.93
2018-12-04T11:50:17.083Z,39.12
2018-12-04T11:51:17.027Z,39.14
2018-12-04T11:52:16.980Z,39.12
2018-12-04T11:53:16.985Z,38.76
2018-12-04T11:54:16.888Z,38.85
2018-12-04T11:55:16.842Z,38.76
2018-12-04T11:56:16.796Z,38.66
2018-12-04T11:57:16.748Z,38.85
2018-12-04T11:58:16.703Z,38.85
2018-12-04T11:59:16.655Z,38.66
2018-12-04T12:00:16.610Z,38.56
2018-12-04T12:01:16.563Z,38.56
2018-12-04T12:02:16.517Z,38.56
2018-12-04T12:03:16.470Z,38.37
2018-12-04T12:04:16.424Z,38.66
2018-12-04T12:05:16.377Z,38.46
2018-12-04T12:06:16.332Z,38.46
2018-12-04T12:07:20.535Z,38.46
2018-12-04T12:08:16.239Z,38.46
2018-12-04T12:09:16.192Z,38.56
2018-12-04T12:10:16.146Z,38.37
2018-12-04T12:11:16.100Z,38.46
2018-12-04T12:12:16.054Z,38.46
2018-12-04T12:13:16.006Z,38.37
2018-12-04T12:14:15.960Z,38.28
2018-12-04T12:15:18.046Z,38.28
2018-12-04T12:16:15.872Z,38.46
2018-12-04T12:17:15.821Z,38.37
2018-12-04T12:18:15.774Z,38.28
2018-12-04T12:19:15.728Z,38.18
2018-12-04T12:20:15.683Z,37.89
2018-12-04T12:21:15.639Z,37.89
2018-12-04T12:22:15.589Z,37.89
2018-12-04T12:23:15.543Z,38.18
2018-12-04T12:24:15.496Z,38.18
2018-12-04T12:25:15.453Z,38.18
2018-12-04T12:26:15.404Z,38.28
2018-12-04T12:27:15.358Z,38.37
2018-12-04T12:28:15.312Z,38.18
2018-12-04T12:29:15.265Z,38.28
2018-12-04T12:30:15.269Z,38.37
2018-12-04T12:31:15.175Z,38.46
2018-12-04T12:32:15.125Z,38.56
2018-12-04T12:33:15.078Z,38.66
2018-12-04T12:34:15.033Z,38.66
2018-12-04T12:35:14.990Z,38.66
2018-12-04T12:36:14.941Z,38.66
2018-12-04T12:37:14.894Z,38.56
2018-12-04T12:38:14.848Z,38.56
2018-12-04T12:39:14.802Z,38.56
2018-12-04T12:40:14.757Z,38.76
2018-12-04T12:41:14.709Z,38.66
2018-12-04T12:42:14.663Z,38.66
2018-12-04T12:43:14.616Z,38.66
2018-12-04T12:44:14.570Z,38.76
2018-12-04T12:45:14.523Z,38.76
2018-12-04T12:46:14.479Z,38.66
2018-12-04T12:47:14.430Z,38.66
2018-12-04T12:48:14.385Z,38.76
2018-12-04T12:49:14.338Z,38.76
2018-12-04T12:50:14.291Z,38.76
2018-12-04T12:51:14.249Z,38.56
2018-12-04T12:52:14.200Z,38.56